Time;durP1;ratioP1;P1;durP2;ratioP2;P2;SDS_P1;SDS_P2;PMS_P1;PMS_P2;Temp;Humidity;BMP_temperature;BMP_pressure;BME280_temperature;BME280_humidity;BME280_pressure;Samples;Min_cycle;Max_cycle;Signal;HPM_P1;HPM_P2
2024/01/17 00:00:57;;;;;;;;;;;;;;;18.43;57.16;101118.06;7392160;19;1485;-33
2024/01/17 00:03:28;;;;;;;;;;;;;;;18.36;57.39;101106.13;7391281;19;1728;-33
2024/01/17 00:05:56;;;;;;;;;;;;;;;18.43;57.22;101112.69;7392388;19;1339;-36
2024/01/17 00:08:24;;;;;;;;;;;;;;;18.43;57.33;101096.63;7393087;19;1858;-34
2024/01/17 00:10:53;;;;;;;;;;;;;;;18.40;57.12;101102.22;7392318;19;1855;-34
2024/01/17 00:13:21;;;;;;;;;;;;;;;18.39;57.16;101095.19;7392987;19;1941;-33
2024/01/17 00:15:49;;;;;;;;;;;;;;;18.35;57.24;101088.38;7388791;19;1748;-34
2024/01/17 00:18:18;;;;;;;;;;;;;;;18.36;57.43;101090.06;7392713;19;1677;-33
2024/01/17 00:20:49;;;;;;;;;;;;;;;18.34;57.39;101081.28;7392911;19;1636;-33
2024/01/17 00:23:17;;;;;;;;;;;;;;;18.37;57.22;101083.75;7393741;19;1566;-33
2024/01/17 00:25:45;;;;;;;;;;;;;;;18.32;57.25;101081.41;7393209;19;1847;-33
2024/01/17 00:28:14;;;;;;;;;;;;;;;18.37;57.23;101081.06;7391796;19;1978;-33
2024/01/17 00:30:42;;;;;;;;;;;;;;;18.34;57.31;101082.13;7389351;19;1854;-34
2024/01/17 00:33:10;;;;;;;;;;;;;;;18.29;57.43;101079.00;7391757;19;1644;-33
2024/01/17 00:35:39;;;;;;;;;;;;;;;18.32;57.29;101072.53;7393076;19;1641;-34
2024/01/17 00:38:10;;;;;;;;;;;;;;;18.33;57.14;101087.63;7391936;19;2484;-33
2024/01/17 00:40:39;;;;;;;;;;;;;;;18.32;57.11;101084.09;7393239;19;1651;-34
2024/01/17 00:43:08;;;;;;;;;;;;;;;18.22;57.27;101085.81;7389648;19;1569;-34
2024/01/17 00:45:36;;;;;;;;;;;;;;;17.88;58.32;101097.34;7391541;19;1831;-33
2024/01/17 00:48:04;;;;;;;;;;;;;;;17.67;58.56;101085.63;7376254;19;1344;-33
2024/01/17 00:50:33;;;;;;;;;;;;;;;17.41;59.37;101079.63;7391074;19;1477;-33
2024/01/17 00:53:01;;;;;;;;;;;;;;;17.36;59.21;101085.31;7389288;19;1849;-34
2024/01/17 00:55:32;;;;;;;;;;;;;;;17.25;59.79;101088.81;7391039;19;1669;-33
2024/01/17 00:58:00;;;;;;;;;;;;;;;17.31;59.72;101092.84;7390249;19;1610;-34
2024/01/17 01:00:29;;;;;;;;;;;;;;;17.67;58.86;101077.63;7390830;19;1657;-34
2024/01/17 01:02:57;;;;;;;;;;;;;;;18.06;57.96;101083.50;7391071;19;1379;-33
2024/01/17 01:05:25;;;;;;;;;;;;;;;18.23;57.43;101072.31;7390623;19;1581;-33
2024/01/17 01:07:54;;;;;;;;;;;;;;;18.37;57.14;101073.03;7390417;19;1372;-34
2024/01/17 01:10:22;;;;;;;;;;;;;;;18.40;56.89;101078.13;7392005;19;1652;-33
2024/01/17 01:12:53;;;;;;;;;;;;;;;18.35;56.92;101072.31;7387974;19;1849;-34
2024/01/17 01:15:21;;;;;;;;;;;;;;;18.35;57.08;101066.94;7390056;19;1720;-34
2024/01/17 01:17:50;;;;;;;;;;;;;;;18.32;57.03;101051.13;7390397;19;1653;-33
2024/01/17 01:20:18;;;;;;;;;;;;;;;18.27;57.21;101064.88;7389262;19;1569;-34
2024/01/17 01:22:46;;;;;;;;;;;;;;;18.26;57.07;101064.03;7388775;19;1486;-33
2024/01/17 01:25:14;;;;;;;;;;;;;;;18.28;57.29;101066.56;7391126;19;1630;-33
2024/01/17 01:27:43;;;;;;;;;;;;;;;18.29;57.17;101055.75;7399921;19;1280;-33
2024/01/17 01:30:14;;;;;;;;;;;;;;;18.32;57.01;101053.78;7405268;19;1665;-34
2024/01/17 01:32:42;;;;;;;;;;;;;;;18.29;56.95;101057.56;7403904;19;1849;-33
2024/01/17 01:35:11;;;;;;;;;;;;;;;18.25;57.17;101062.31;7406027;19;1851;-34
2024/01/17 01:37:39;;;;;;;;;;;;;;;18.27;57.11;101062.19;7404327;19;1486;-41
2024/01/17 01:40:08;;;;;;;;;;;;;;;18.22;57.10;101056.34;7404585;19;1352;-34
2024/01/17 01:42:37;;;;;;;;;;;;;;;18.19;57.30;101044.06;7402702;19;1874;-33
2024/01/17 01:45:06;;;;;;;;;;;;;;;18.24;57.23;101046.38;7403570;19;1671;-33
2024/01/17 01:47:37;;;;;;;;;;;;;;;18.24;56.95;101043.69;7387918;19;1636;-33
2024/01/17 01:50:06;;;;;;;;;;;;;;;18.21;57.19;101050.16;7402777;19;1234;-34
2024/01/17 01:52:35;;;;;;;;;;;;;;;18.16;57.23;101036.28;7403435;19;1842;-34
2024/01/17 01:55:05;;;;;;;;;;;;;;;18.26;57.10;101047.97;7404391;19;1458;-34
2024/01/17 01:57:33;;;;;;;;;;;;;;;18.25;57.18;101015.97;7403522;19;1585;-33
2024/01/17 02:00:04;;;;;;;;;;;;;;;18.20;56.99;101024.34;7404683;19;1641;-34
2024/01/17 02:02:33;;;;;;;;;;;;;;;18.22;57.08;101034.94;7403627;19;1565;-33
2024/01/17 02:05:04;;;;;;;;;;;;;;;18.22;57.09;101025.09;7404705;19;1565;-34
2024/01/17 02:07:33;;;;;;;;;;;;;;;18.26;56.91;101050.66;7404248;19;1834;-33
2024/01/17 02:10:03;;;;;;;;;;;;;;;18.21;56.99;101043.97;7403862;19;1742;-33
2024/01/17 02:12:32;;;;;;;;;;;;;;;18.20;56.71;101043.09;7400457;19;1846;-33
2024/01/17 02:15:01;;;;;;;;;;;;;;;18.19;56.98;101060.13;7402129;19;1331;-33
2024/01/17 02:17:29;;;;;;;;;;;;;;;18.17;56.95;101051.38;7403917;19;1735;-33
2024/01/17 02:19:58;;;;;;;;;;;;;;;18.19;56.90;101052.09;7402933;19;1693;-33
2024/01/17 02:22:29;;;;;;;;;;;;;;;18.17;56.85;101040.69;7403153;19;1565;-33
2024/01/17 02:25:04;;;;;;;;;;;;;;;18.21;56.82;101042.13;7402836;19;1554;-33
2024/01/17 02:27:32;;;;;;;;;;;;;;;18.24;56.85;101047.25;7402785;19;1656;-33
2024/01/17 02:30:01;;;;;;;;;;;;;;;18.19;56.75;101035.22;7402209;19;1843;-33
2024/01/17 02:32:30;;;;;;;;;;;;;;;18.13;56.83;101015.13;7402380;19;1880;-34
2024/01/17 02:34:58;;;;;;;;;;;;;;;18.17;56.96;101019.25;7403040;19;2053;-34
2024/01/17 02:37:26;;;;;;;;;;;;;;;18.15;56.81;100998.97;7403429;19;1489;-34
2024/01/17 02:39:55;;;;;;;;;;;;;;;18.16;56.89;101012.19;7393793;19;1749;-33
2024/01/17 02:42:26;;;;;;;;;;;;;;;18.16;57.03;101008.69;7396057;19;1601;-33
2024/01/17 02:44:54;;;;;;;;;;;;;;;18.15;57.08;100997.13;7394670;19;1634;-33
2024/01/17 02:47:22;;;;;;;;;;;;;;;18.14;56.98;101016.81;7396017;19;1244;-33
2024/01/17 02:49:51;;;;;;;;;;;;;;;18.18;56.86;100990.66;7380163;19;1652;-33
2024/01/17 02:52:19;;;;;;;;;;;;;;;18.17;56.81;101005.03;7394686;19;1869;-34
2024/01/17 02:54:47;;;;;;;;;;;;;;;18.17;56.69;101021.09;7395558;19;1598;-33
2024/01/17 02:57:18;;;;;;;;;;;;;;;18.21;56.70;101003.81;7395918;19;1232;-33
2024/01/17 02:59:49;;;;;;;;;;;;;;;18.16;56.86;101001.47;7396185;19;1673;-33
2024/01/17 03:02:17;;;;;;;;;;;;;;;18.14;56.90;100998.09;7395641;19;1332;-33
2024/01/17 03:04:46;;;;;;;;;;;;;;;18.16;56.93;101014.88;7395176;19;1593;-34
2024/01/17 03:07:14;;;;;;;;;;;;;;;18.21;56.76;100995.78;7394423;19;1600;-33
2024/01/17 03:09:42;;;;;;;;;;;;;;;18.15;56.85;100991.78;7394511;19;1859;-34
2024/01/17 03:12:11;;;;;;;;;;;;;;;18.13;56.86;100999.06;7395297;19;1841;-32
2024/01/17 03:14:39;;;;;;;;;;;;;;;18.16;56.88;101014.88;7395067;19;1703;-33
2024/01/17 03:17:10;;;;;;;;;;;;;;;18.15;56.80;101005.16;7394994;19;1546;-41
2024/01/17 03:19:38;;;;;;;;;;;;;;;18.10;56.84;101001.97;7394984;19;1657;-34
2024/01/17 03:22:07;;;;;;;;;;;;;;;18.12;56.88;101002.72;7394461;19;1677;-33
2024/01/17 03:24:35;;;;;;;;;;;;;;;18.17;56.81;101013.91;7394127;19;1767;-34
2024/01/17 03:27:03;;;;;;;;;;;;;;;18.18;56.78;100999.53;7392881;19;1427;-33
2024/01/17 03:29:32;;;;;;;;;;;;;;;18.20;56.62;100999.41;7394031;19;1950;-34
2024/01/17 03:32:00;;;;;;;;;;;;;;;18.20;56.69;101005.63;7393885;19;1861;-33
2024/01/17 03:34:31;;;;;;;;;;;;;;;18.19;56.72;101013.78;7394495;19;1629;-33
2024/01/17 03:36:59;;;;;;;;;;;;;;;18.15;56.80;101007.84;7393535;19;1380;-33
2024/01/17 03:39:27;;;;;;;;;;;;;;;18.13;56.74;101017.81;7393295;19;1475;-33
2024/01/17 03:41:56;;;;;;;;;;;;;;;18.17;56.74;101021.09;7393622;19;1463;-33
2024/01/17 03:44:24;;;;;;;;;;;;;;;18.12;56.73;101024.13;7392816;19;1677;-33
2024/01/17 03:46:53;;;;;;;;;;;;;;;18.14;56.72;101024.00;7393061;19;1629;-34
2024/01/17 03:49:21;;;;;;;;;;;;;;;18.14;56.47;101015.97;7378204;19;1586;-33
2024/01/17 03:51:53;;;;;;;;;;;;;;;18.17;56.45;101016.59;7394201;19;1853;-33
2024/01/17 03:54:21;;;;;;;;;;;;;;;18.11;56.43;101022.44;7394780;19;1321;-33
2024/01/17 03:56:49;;;;;;;;;;;;;;;17.88;57.14;101009.06;7394418;19;1546;-34
2024/01/17 03:59:17;;;;;;;;;;;;;;;17.59;57.85;101016.69;7393114;19;1677;-33
2024/01/17 04:01:46;;;;;;;;;;;;;;;17.41;58.28;101028.84;7393426;19;1244;-33
2024/01/17 04:04:14;;;;;;;;;;;;;;;17.67;57.63;101013.41;7392370;19;1673;-33
2024/01/17 04:06:42;;;;;;;;;;;;;;;18.25;56.48;101000.75;7392924;19;1309;-33
2024/01/17 04:09:13;;;;;;;;;;;;;;;18.58;55.51;101024.88;7392361;19;1574;-34
2024/01/17 04:11:42;;;;;;;;;;;;;;;18.55;55.61;101030.50;7393342;19;1581;-33
2024/01/17 04:14:10;;;;;;;;;;;;;;;18.57;55.82;101023.19;7390199;19;1849;-34
2024/01/17 04:16:39;;;;;;;;;;;;;;;18.71;55.50;101025.56;7392990;19;1759;-33
2024/01/17 04:19:08;;;;;;;;;;;;;;;18.71;55.34;101030.94;7393262;19;1641;-33
2024/01/17 04:21:36;;;;;;;;;;;;;;;18.67;55.32;101016.94;7393679;19;1645;-34
2024/01/17 04:24:05;;;;;;;;;;;;;;;18.68;55.29;101025.81;7391925;19;1486;-33
2024/01/17 04:26:36;;;;;;;;;;;;;;;18.67;55.39;101026.81;7393027;19;1474;-34
2024/01/17 04:29:04;;;;;;;;;;;;;;;18.62;55.58;101007.59;7391964;19;1773;-33
2024/01/17 04:31:33;;;;;;;;;;;;;;;18.67;55.36;101019.63;7392608;19;1672;-33
2024/01/17 04:34:02;;;;;;;;;;;;;;;18.74;55.44;101032.50;7388977;19;1846;-33
2024/01/17 04:36:31;;;;;;;;;;;;;;;18.75;55.26;101040.41;7390767;19;1470;-33
2024/01/17 04:39:00;;;;;;;;;;;;;;;18.67;55.55;101041.03;7387955;19;2480;-34
2024/01/17 04:41:28;;;;;;;;;;;;;;;18.69;55.42;101033.72;7392083;19;1589;-33
2024/01/17 04:43:59;;;;;;;;;;;;;;;18.81;55.13;101042.63;7391148;19;1573;-33
2024/01/17 04:46:27;;;;;;;;;;;;;;;18.73;55.40;101028.13;7393826;19;1046;-34
2024/01/17 04:48:56;;;;;;;;;;;;;;;18.76;55.47;101047.50;7378362;19;1124;-33
2024/01/17 04:51:25;;;;;;;;;;;;;;;18.72;55.63;101021.06;7388197;19;1906;-33
2024/01/17 04:53:54;;;;;;;;;;;;;;;18.79;55.67;101038.34;7389663;19;1879;-34
2024/01/17 04:56:22;;;;;;;;;;;;;;;18.71;55.42;101067.59;7391443;19;1562;-34
2024/01/17 04:58:51;;;;;;;;;;;;;;;18.64;55.78;101057.38;7389935;19;1520;-33
2024/01/17 05:01:22;;;;;;;;;;;;;;;18.49;56.17;101053.28;7388772;19;1483;-34
2024/01/17 05:03:50;;;;;;;;;;;;;;;18.44;56.50;101061.69;7390405;19;1452;-33
2024/01/17 05:06:18;;;;;;;;;;;;;;;18.36;56.70;101037.34;7390207;19;1237;-33
2024/01/17 05:08:47;;;;;;;;;;;;;;;18.37;56.56;101065.00;7390799;19;1368;-33
2024/01/17 05:11:15;;;;;;;;;;;;;;;18.38;56.64;101035.44;7390670;19;1447;-34
2024/01/17 05:13:43;;;;;;;;;;;;;;;18.39;56.50;101050.50;7389013;19;1850;-33
2024/01/17 05:16:12;;;;;;;;;;;;;;;18.34;56.52;101044.66;7388864;19;1653;-33
2024/01/17 05:18:43;;;;;;;;;;;;;;;18.35;56.63;101042.84;7388748;19;1543;-33
2024/01/17 05:21:11;;;;;;;;;;;;;;;18.31;56.62;101033.38;7390200;19;1560;-33
2024/01/17 05:23:40;;;;;;;;;;;;;;;18.29;56.68;101034.31;7390295;19;1558;-34
2024/01/17 05:26:08;;;;;;;;;;;;;;;18.36;56.45;101047.22;7386669;19;1184;-33
2024/01/17 05:28:37;;;;;;;;;;;;;;;18.39;56.26;101037.13;7386069;19;1680;-33
2024/01/17 05:31:05;;;;;;;;;;;;;;;18.38;56.57;101032.75;7389956;19;1515;-33
2024/01/17 05:33:33;;;;;;;;;;;;;;;18.40;56.53;101038.81;7388116;19;1868;-33
2024/01/17 05:36:04;;;;;;;;;;;;;;;18.40;56.22;101043.31;7389871;19;1214;-33
2024/01/17 05:38:33;;;;;;;;;;;;;;;18.38;56.34;101045.25;7390957;19;1400;-33
2024/01/17 05:41:01;;;;;;;;;;;;;;;18.41;56.21;101045.88;7390587;19;1372;-34
2024/01/17 05:43:30;;;;;;;;;;;;;;;18.40;56.09;101051.34;7389526;19;1448;-33
2024/01/17 05:45:59;;;;;;;;;;;;;;;18.37;56.35;101059.63;7389745;19;1561;-33
2024/01/17 05:48:27;;;;;;;;;;;;;;;18.39;56.10;101060.38;7386983;19;1376;-33
2024/01/17 05:50:56;;;;;;;;;;;;;;;18.34;56.37;101081.28;7374055;19;1230;-34
2024/01/17 05:53:26;;;;;;;;;;;;;;;18.38;56.14;101082.75;7388121;19;1845;-33
2024/01/17 05:55:55;;;;;;;;;;;;;;;18.45;56.07;101083.97;7389274;19;1596;-33
2024/01/17 05:58:23;;;;;;;;;;;;;;;18.45;55.88;101086.66;7387667;19;1503;-35
2024/01/17 06:00:51;;;;;;;;;;;;;;;18.45;55.98;101070.56;7389807;19;1542;-33
2024/01/17 06:03:20;;;;;;;;;;;;;;;18.46;56.12;101080.28;7385479;19;1586;-33
2024/01/17 06:05:48;;;;;;;;;;;;;;;18.40;55.90;101075.44;7388346;19;1674;-34
2024/01/17 06:08:16;;;;;;;;;;;;;;;18.39;56.21;101079.09;7389455;19;1519;-33
2024/01/17 06:10:47;;;;;;;;;;;;;;;18.39;56.03;101076.44;7387948;19;1006;-33
2024/01/17 06:13:16;;;;;;;;;;;;;;;18.43;55.98;101084.09;7384738;19;1852;-33
2024/01/17 06:15:44;;;;;;;;;;;;;;;18.45;55.89;101090.16;7396078;19;1888;-33
2024/01/17 06:18:12;;;;;;;;;;;;;;;18.56;55.68;101070.56;7397449;19;1730;-34
2024/01/17 06:20:41;;;;;;;;;;;;;;;18.51;55.94;101082.63;7397689;19;1748;-34
2024/01/17 06:23:09;;;;;;;;;;;;;;;18.64;55.63;101089.53;7397368;19;1128;-33
2024/01/17 06:25:37;;;;;;;;;;;;;;;18.83;55.12;101077.34;7395816;19;1933;-33
2024/01/17 06:28:08;;;;;;;;;;;;;;;19.01;54.52;101081.16;7391334;19;1835;-33
2024/01/17 06:30:38;;;;;;;;;;;;;;;19.17;53.81;101074.50;7394734;19;1201;-33
2024/01/17 06:33:06;;;;;;;;;;;;;;;19.12;53.59;101084.75;7394221;19;1857;-34
2024/01/17 06:35:35;;;;;;;;;;;;;;;19.20;53.10;101088.53;7394495;19;1280;-33
2024/01/17 06:38:03;;;;;;;;;;;;;;;19.27;52.87;101087.00;7395207;19;1178;-33
2024/01/17 06:40:32;;;;;;;;;;;;;;;19.32;53.05;101080.41;7396032;19;1277;-33
2024/01/17 06:43:00;;;;;;;;;;;;;;;19.36;53.09;101080.03;7392767;19;1869;-33
2024/01/17 06:45:31;;;;;;;;;;;;;;;19.35;53.35;101086.34;7394071;19;1309;-33
2024/01/17 06:48:03;;;;;;;;;;;;;;;19.34;53.61;101075.75;7390954;19;1428;-33
2024/01/17 06:50:31;;;;;;;;;;;;;;;19.22;53.77;101061.59;7378267;19;1241;-33
2024/01/17 06:53:00;;;;;;;;;;;;;;;19.15;53.92;101055.88;7393107;19;1853;-34
2024/01/17 06:55:28;;;;;;;;;;;;;;;19.02;54.04;101058.75;7394888;19;1606;-33
2024/01/17 06:57:56;;;;;;;;;;;;;;;18.95;54.47;101057.53;7394819;19;1767;-33
2024/01/17 07:00:24;;;;;;;;;;;;;;;18.93;54.68;101072.91;7393723;19;1855;-34
2024/01/17 07:02:55;;;;;;;;;;;;;;;18.59;55.55;101070.28;7392021;19;1688;-33
2024/01/17 07:05:24;;;;;;;;;;;;;;;18.20;56.70;101069.84;7389320;19;1270;-33
2024/01/17 07:07:52;;;;;;;;;;;;;;;18.01;57.02;101075.00;7393958;19;1324;-33
2024/01/17 07:10:20;;;;;;;;;;;;;;;17.72;57.60;101070.06;7395668;19;1120;-33
2024/01/17 07:12:49;;;;;;;;;;;;;;;18.11;56.33;101054.56;7380660;19;1518;-33
2024/01/17 07:15:17;;;;;;;;;;;;;;;18.45;54.33;101067.91;7384883;19;1870;-33
2024/01/17 07:17:46;;;;;;;;;;;;;;;18.49;53.70;101064.00;7392119;19;1733;-33
2024/01/17 07:20:17;;;;;;;;;;;;;;;18.61;53.03;101041.56;7391339;19;1822;-33
2024/01/17 07:22:45;;;;;;;;;;;;;;;18.73;52.84;101054.94;7391011;19;1654;-33
2024/01/17 07:25:14;;;;;;;;;;;;;;;18.66;52.97;101047.41;7392117;19;1022;-33
2024/01/17 07:27:43;;;;;;;;;;;;;;;18.65;53.01;101048.34;7391964;19;1427;-32
2024/01/17 07:30:12;;;;;;;;;;;;;;;18.78;53.01;101033.94;7388024;19;1406;-35
2024/01/17 07:32:41;;;;;;;;;;;;;;;18.93;52.63;101032.72;7391732;19;1181;-34
2024/01/17 07:35:10;;;;;;;;;;;;;;;18.93;52.54;101008.59;7392544;19;1942;-33
2024/01/17 07:37:41;;;;;;;;;;;;;;;18.97;52.49;101010.03;7393535;19;1831;-33
2024/01/17 07:40:10;;;;;;;;;;;;;;;18.93;52.67;101024.66;7393766;19;1764;-33
2024/01/17 07:42:38;;;;;;;;;;;;;;;18.95;52.73;101016.50;7392112;19;1312;-33
2024/01/17 07:45:07;;;;;;;;;;;;;;;18.93;52.66;101008.59;7387516;19;1098;-33
2024/01/17 07:47:35;;;;;;;;;;;;;;;18.87;53.05;101011.78;7391191;19;1230;-33
2024/01/17 07:50:04;;;;;;;;;;;;;;;18.91;52.81;101007.03;7373319;19;1279;-33
2024/01/17 07:52:32;;;;;;;;;;;;;;;19.01;52.88;101011.47;7391931;19;1597;-34
2024/01/17 07:55:04;;;;;;;;;;;;;;;18.93;53.00;101003.22;7388254;19;1849;-33
2024/01/17 07:57:32;;;;;;;;;;;;;;;19.00;53.08;101009.78;7388585;19;1238;-34
2024/01/17 08:00:00;;;;;;;;;;;;;;;19.02;52.99;101002.47;7388049;19;1742;-33
2024/01/17 08:02:30;;;;;;;;;;;;;;;19.07;53.13;100994.03;7386695;19;1335;-34
2024/01/17 08:04:59;;;;;;;;;;;;;;;19.06;52.98;101003.91;7392081;19;1202;-33
2024/01/17 08:07:28;;;;;;;;;;;;;;;19.07;53.12;101005.59;7392503;19;1577;-33
2024/01/17 08:09:56;;;;;;;;;;;;;;;19.14;52.98;100994.34;7390216;19;1898;-34
2024/01/17 08:12:27;;;;;;;;;;;;;;;19.08;52.89;100995.75;7389782;19;1929;-33
2024/01/17 08:14:56;;;;;;;;;;;;;;;19.18;53.07;100990.41;7389710;19;1871;-33
2024/01/17 08:17:24;;;;;;;;;;;;;;;19.29;52.96;100976.94;7390977;19;1740;-33
2024/01/17 08:19:52;;;;;;;;;;;;;;;19.27;52.84;100986.97;7391601;19;1367;-33
2024/01/17 08:22:20;;;;;;;;;;;;;;;19.30;52.94;100986.72;7392192;19;1439;-32
2024/01/17 08:24:49;;;;;;;;;;;;;;;19.33;53.01;100986.44;7392011;19;1835;-33
2024/01/17 08:27:17;;;;;;;;;;;;;;;19.44;52.92;100982.84;7389452;19;1926;-33
2024/01/17 08:29:48;;;;;;;;;;;;;;;19.53;52.85;100994.56;7391418;19;1011;-33
2024/01/17 08:32:16;;;;;;;;;;;;;;;19.54;52.85;100974.84;7391659;19;1849;-33
2024/01/17 08:34:45;;;;;;;;;;;;;;;19.54;52.86;100990.94;7389366;19;1841;-33
2024/01/17 08:37:13;;;;;;;;;;;;;;;19.54;52.53;100993.63;7387974;19;1485;-33
2024/01/17 08:39:43;;;;;;;;;;;;;;;19.55;52.82;100993.44;7391165;19;1502;-33
2024/01/17 08:42:11;;;;;;;;;;;;;;;19.62;52.63;101009.88;7388271;19;1709;-33
2024/01/17 08:44:40;;;;;;;;;;;;;;;19.55;52.81;100992.63;7388168;19;1096;-33
2024/01/17 08:47:11;;;;;;;;;;;;;;;19.54;53.11;101007.88;7390459;19;1831;-33
2024/01/17 08:49:41;;;;;;;;;;;;;;;19.34;53.99;101000.66;7376130;19;1653;-34
2024/01/17 08:52:09;;;;;;;;;;;;;;;19.02;54.12;100997.09;7388174;19;1796;-33
2024/01/17 08:54:38;;;;;;;;;;;;;;;18.72;55.07;101002.31;7386412;19;1975;-33
2024/01/17 08:57:06;;;;;;;;;;;;;;;18.83;54.84;101002.31;7390022;19;1563;-32
2024/01/17 08:59:36;;;;;;;;;;;;;;;19.14;54.31;100995.22;7390449;19;1573;-33
2024/01/17 09:02:05;;;;;;;;;;;;;;;19.15;54.59;100985.34;7387034;19;1226;-33
2024/01/17 09:04:35;;;;;;;;;;;;;;;18.92;54.77;100976.56;7389465;19;1403;-33
2024/01/17 09:07:04;;;;;;;;;;;;;;;18.72;55.63;100962.13;7389348;19;1828;-32
2024/01/17 09:09:32;;;;;;;;;;;;;;;18.74;55.39;100965.53;7387231;19;1562;-33
2024/01/17 09:12:00;;;;;;;;;;;;;;;19.00;54.79;100958.88;7390473;19;1251;-33
2024/01/17 09:14:29;;;;;;;;;;;;;;;18.91;55.16;100945.41;7388263;19;1841;-33
2024/01/17 09:16:58;;;;;;;;;;;;;;;18.65;55.14;100940.38;7388901;19;1721;-34
2024/01/17 09:19:26;;;;;;;;;;;;;;;18.41;56.05;100948.63;7386381;19;1502;-33
2024/01/17 09:21:57;;;;;;;;;;;;;;;18.65;55.58;100933.19;7386151;19;1330;-33
2024/01/17 09:24:26;;;;;;;;;;;;;;;18.99;55.31;100932.19;7386083;19;1391;-33
2024/01/17 09:26:55;;;;;;;;;;;;;;;18.91;55.13;100930.16;7385246;19;1284;-33
2024/01/17 09:29:23;;;;;;;;;;;;;;;18.56;56.00;100919.72;7386713;19;1202;-33
2024/01/17 09:31:51;;;;;;;;;;;;;;;18.52;55.90;100915.59;7383312;19;1518;-34
2024/01/17 09:34:20;;;;;;;;;;;;;;;18.87;55.34;100912.66;7386920;19;1853;-33
2024/01/17 09:36:49;;;;;;;;;;;;;;;19.22;54.46;100924.84;7390047;19;1673;-33
2024/01/17 09:39:20;;;;;;;;;;;;;;;19.10;54.78;100912.50;7388150;19;1287;-33
2024/01/17 09:41:49;;;;;;;;;;;;;;;18.75;55.59;100927.91;7389389;19;1816;-33
2024/01/17 09:44:18;;;;;;;;;;;;;;;18.64;55.80;100920.78;7387392;19;1391;-33
2024/01/17 09:46:47;;;;;;;;;;;;;;;18.91;55.02;100914.06;7390220;19;1299;-34
2024/01/17 09:49:16;;;;;;;;;;;;;;;19.22;54.74;100908.78;7394219;19;1542;-33
2024/01/17 09:51:45;;;;;;;;;;;;;;;19.41;54.26;100903.47;7382944;19;1245;-32
2024/01/17 09:54:13;;;;;;;;;;;;;;;19.05;55.08;100884.25;7390965;19;2637;-33
2024/01/17 09:56:45;;;;;;;;;;;;;;;18.66;55.97;100910.78;7395107;19;1664;-33
2024/01/17 09:59:17;;;;;;;;;;;;;;;18.43;56.36;100887.78;7397352;19;1392;-33
2024/01/17 10:01:45;;;;;;;;;;;;;;;18.66;55.69;100875.09;7395518;19;1367;-33
2024/01/17 10:04:14;;;;;;;;;;;;;;;18.97;55.08;100876.03;7396495;19;1732;-34
2024/01/17 10:06:45;;;;;;;;;;;;;;;19.37;54.26;100861.81;7391864;19;1449;-33
2024/01/17 10:09:14;;;;;;;;;;;;;;;19.05;54.86;100862.81;7392055;19;1439;-34
2024/01/17 10:11:45;;;;;;;;;;;;;;;18.62;55.60;100857.59;7394599;19;1495;-33
2024/01/17 10:14:15;;;;;;;;;;;;;;;18.38;56.49;100871.22;7394742;19;1858;-33
2024/01/17 10:16:44;;;;;;;;;;;;;;;18.46;56.13;100866.06;7396099;19;1388;-32
2024/01/17 10:19:12;;;;;;;;;;;;;;;18.15;55.57;100755.41;7396060;19;1876;-33
2024/01/17 10:21:41;;;;;;;;;;;;;;;19.22;54.05;100863.19;7397634;19;1371;-33
2024/01/17 10:24:09;;;;;;;;;;;;;;;19.35;54.04;100895.97;7395061;19;1930;-32
2024/01/17 10:26:37;;;;;;;;;;;;;;;19.36;54.29;100865.50;7393733;19;2065;-34
2024/01/17 10:29:08;;;;;;;;;;;;;;;19.29;54.39;100850.94;7392587;19;1536;-33
2024/01/17 10:31:37;;;;;;;;;;;;;;;19.25;54.50;100854.88;7395383;19;1371;-33
2024/01/17 10:34:05;;;;;;;;;;;;;;;19.22;55.03;100853.31;7395960;19;1741;-32
2024/01/17 10:36:33;;;;;;;;;;;;;;;19.31;54.92;100846.28;7395653;19;1311;-34
2024/01/17 10:39:06;;;;;;;;;;;;;;;19.32;55.21;100853.34;7393599;19;1427;-33
2024/01/17 10:41:36;;;;;;;;;;;;;;;19.16;55.52;100847.63;7395082;19;1476;-33
2024/01/17 10:44:05;;;;;;;;;;;;;;;19.22;55.26;100829.19;7393593;19;1408;-33
2024/01/17 10:46:36;;;;;;;;;;;;;;;19.15;55.43;100846.78;7392087;19;1498;-33
2024/01/17 10:49:04;;;;;;;;;;;;;;;19.30;55.33;100828.50;7393390;19;1399;-33
2024/01/17 10:51:37;;;;;;;;;;;;;;;19.26;55.23;100809.16;7378518;19;1462;-33
2024/01/17 10:54:08;;;;;;;;;;;;;;;19.39;55.48;100822.31;7394010;19;1401;-33
2024/01/17 10:56:38;;;;;;;;;;;;;;;19.39;55.61;100803.53;7392161;19;1934;-33
2024/01/17 10:59:07;;;;;;;;;;;;;;;19.38;55.82;100793.81;7392764;19;1467;-33
2024/01/17 11:01:40;;;;;;;;;;;;;;;19.33;55.84;100800.56;7394057;19;1384;-33
2024/01/17 11:04:12;;;;;;;;;;;;;;;19.39;55.72;100794.66;7393379;19;1557;-34
2024/01/17 11:06:41;;;;;;;;;;;;;;;19.36;56.01;100794.91;7395269;19;1594;-33
2024/01/17 11:09:10;;;;;;;;;;;;;;;19.39;56.17;100790.13;7393269;19;1541;-33
2024/01/17 11:11:39;;;;;;;;;;;;;;;19.39;56.34;100787.44;7394548;19;1601;-33
2024/01/17 11:14:09;;;;;;;;;;;;;;;19.46;56.06;100782.41;7394156;19;1229;-33
2024/01/17 11:16:42;;;;;;;;;;;;;;;19.52;56.10;100786.34;7391058;19;1848;-33
2024/01/17 11:19:11;;;;;;;;;;;;;;;19.39;56.60;100790.13;7393589;19;1280;-33
2024/01/17 11:21:39;;;;;;;;;;;;;;;19.50;56.84;100788.31;7393402;19;1494;-33
2024/01/17 11:24:13;;;;;;;;;;;;;;;19.40;57.03;100785.63;7394881;19;1425;-33
2024/01/17 11:26:45;;;;;;;;;;;;;;;19.35;57.12;100772.63;7394726;19;1779;-34
2024/01/17 11:29:18;;;;;;;;;;;;;;;19.42;57.08;100795.22;7390506;19;1922;-34
2024/01/17 11:31:55;;;;;;;;;;;;;;;19.37;57.00;100767.97;7390731;19;1808;-33
2024/01/17 11:34:23;;;;;;;;;;;;;;;19.38;57.06;100780.41;7391744;19;1582;-33
2024/01/17 11:36:52;;;;;;;;;;;;;;;19.33;57.09;100755.81;7390204;19;1849;-33
2024/01/17 11:39:22;;;;;;;;;;;;;;;19.28;57.15;100758.94;7392282;19;1545;-33
2024/01/17 11:41:52;;;;;;;;;;;;;;;19.32;56.95;100762.19;7391155;19;1415;-33
2024/01/17 11:44:21;;;;;;;;;;;;;;;19.31;57.04;100752.44;7391274;19;1338;-33
2024/01/17 11:46:54;;;;;;;;;;;;;;;19.32;56.91;100745.22;7392520;19;1838;-33
2024/01/17 11:49:37;;;;;;;;;;;;;;;19.30;57.19;100750.75;7391938;19;1200;-33
2024/01/17 11:52:12;;;;;;;;;;;;;;;19.22;57.18;100758.63;7375723;19;1501;-33
2024/01/17 11:54:40;;;;;;;;;;;;;;;19.24;57.15;100786.16;7393020;19;1865;-33
2024/01/17 11:57:09;;;;;;;;;;;;;;;19.30;56.92;100750.75;7393691;19;1391;-34
2024/01/17 11:59:37;;;;;;;;;;;;;;;19.33;56.97;100758.50;7394195;19;1253;-32
2024/01/17 12:02:08;;;;;;;;;;;;;;;19.42;56.53;100728.19;7393628;19;1777;-32
2024/01/17 12:04:40;;;;;;;;;;;;;;;19.50;56.42;100737.34;7389058;19;1797;-33
2024/01/17 12:07:08;;;;;;;;;;;;;;;19.54;55.95;100730.75;7392169;19;1284;-33
2024/01/17 12:09:36;;;;;;;;;;;;;;;19.60;55.80;100728.34;7392182;19;1732;-32
2024/01/17 12:12:05;;;;;;;;;;;;;;;19.60;55.59;100722.13;7390985;19;1409;-33
2024/01/17 12:14:35;;;;;;;;;;;;;;;19.66;55.58;100710.84;7392689;19;1594;-33
2024/01/17 12:17:04;;;;;;;;;;;;;;;19.59;55.53;100731.16;7389574;19;1841;-33
2024/01/17 12:19:35;;;;;;;;;;;;;;;19.65;55.56;100707.28;7389383;19;1985;-33
2024/01/17 12:22:04;;;;;;;;;;;;;;;19.59;55.90;100707.84;7390882;19;1499;-32
2024/01/17 12:24:33;;;;;;;;;;;;;;;19.52;56.18;100693.34;7392208;19;1381;-33
2024/01/17 12:27:01;;;;;;;;;;;;;;;19.53;56.09;100704.91;7392226;19;1241;-33
2024/01/17 12:29:29;;;;;;;;;;;;;;;19.36;56.80;100683.16;7392290;19;1922;-33
2024/01/17 12:31:58;;;;;;;;;;;;;;;19.38;57.07;100689.22;7377449;19;1776;-35
2024/01/17 12:34:26;;;;;;;;;;;;;;;19.39;56.88;100687.38;7386310;19;1450;-33
2024/01/17 12:36:57;;;;;;;;;;;;;;;19.36;57.08;100688.53;7388713;19;1841;-33
2024/01/17 12:39:25;;;;;;;;;;;;;;;19.45;56.99;100719.84;7387707;19;1486;-33
2024/01/17 12:41:56;;;;;;;;;;;;;;;19.43;56.86;100720.97;7388623;19;1404;-32
2024/01/17 12:44:25;;;;;;;;;;;;;;;19.39;56.94;100722.25;7388372;19;1528;-33
2024/01/17 12:46:54;;;;;;;;;;;;;;;19.42;56.87;100740.75;7388400;19;1565;-33
2024/01/17 12:49:22;;;;;;;;;;;;;;;19.45;57.02;100732.41;7390395;19;1407;-33
2024/01/17 12:51:51;;;;;;;;;;;;;;;19.02;56.76;100646.00;7375142;19;1602;-37
2024/01/17 12:54:22;;;;;;;;;;;;;;;19.54;56.66;100728.91;7388451;19;1463;-33
2024/01/17 12:56:51;;;;;;;;;;;;;;;19.61;56.58;100729.19;7385166;19;1854;-33